Time;durP1;ratioP1;P1;durP2;ratioP2;P2;SDS_P1;SDS_P2;PMS_P1;PMS_P2;Temp;Humidity;BMP_temperature;BMP_pressure;BME280_temperature;BME280_humidity;BME280_pressure;Samples;Min_cycle;Max_cycle;Signal;HPM_P1;HPM_P2
2023/01/01 00:05:26;;;;;;;18.13;6.15;;;15.20;99.90;;;;;;12586253;28;20501;-88
2023/01/01 00:11:27;;;;;;;15.95;5.47;;;15.20;99.90;;;;;;12566820;28;20040;-87
2023/01/01 00:17:29;;;;;;;15.82;5.18;;;15.20;99.90;;;;;;12573967;28;20052;-88
2023/01/01 00:23:32;;;;;;;10.30;4.68;;;15.20;99.90;;;;;;12588954;28;20041;-88
2023/01/01 00:29:34;;;;;;;12.15;4.05;;;15.20;99.90;;;;;;12571473;28;20131;-87
2023/01/01 00:35:35;;;;;;;12.73;3.38;;;15.30;99.90;;;;;;12578024;28;20059;-88
2023/01/01 00:41:37;;;;;;;10.15;2.60;;;15.30;99.90;;;;;;12569680;28;20045;-88
2023/01/01 00:47:39;;;;;;;9.77;3.08;;;15.30;99.90;;;;;;12589694;28;20090;-88
2023/01/01 00:53:41;;;;;;;11.88;3.17;;;15.20;99.90;;;;;;12572486;28;20055;-88
2023/01/01 00:59:43;;;;;;;9.25;2.90;;;15.30;99.90;;;;;;12584804;28;20044;-88
2023/01/01 01:05:44;;;;;;;10.75;3.65;;;15.40;99.90;;;;;;12570262;28;20044;-88
2023/01/01 01:11:47;;;;;;;7.15;3.50;;;15.50;99.90;;;;;;12566457;28;20404;-88
2023/01/01 01:17:48;;;;;;;7.65;3.70;;;15.40;99.90;;;;;;12587734;28;20044;-88
2023/01/01 01:23:51;;;;;;;10.30;3.90;;;15.20;99.90;;;;;;12566559;28;20037;-88
2023/01/01 01:29:53;;;;;;;9.55;3.90;;;15.10;99.90;;;;;;12580498;28;20044;-88
2023/01/01 01:35:56;;;;;;;11.93;3.97;;;15.20;99.90;;;;;;12581128;28;20051;-88
2023/01/01 01:41:57;;;;;;;15.13;4.82;;;15.30;99.90;;;;;;12583978;28;20048;-88
2023/01/01 01:48:00;;;;;;;14.18;4.22;;;15.40;99.90;;;;;;12600790;28;20519;-88
2023/01/01 01:54:08;;;;;;;11.23;4.32;;;15.50;99.90;;;;;;12561210;28;20043;-88
2023/01/01 02:00:11;;;;;;;13.23;4.18;;;15.50;99.90;;;;;;12579679;28;20044;-88
2023/01/01 02:06:14;;;;;;;12.68;4.07;;;15.40;99.90;;;;;;12588840;28;20063;-87
2023/01/01 02:12:16;;;;;;;12.90;3.40;;;15.30;99.90;;;;;;12593609;28;20049;-88
2023/01/01 02:18:24;;;;;;;9.40;3.83;;;15.30;99.90;;;;;;12565249;28;20052;-88
2023/01/01 02:24:49;;;;;;;9.25;3.80;;;15.30;99.90;;;;;;12582264;28;20049;-88
2023/01/01 02:30:53;;;;;;;15.07;3.80;;;15.20;99.90;;;;;;12571332;28;20052;-87
2023/01/01 02:36:58;;;;;;;10.85;3.78;;;15.20;99.90;;;;;;12603364;28;20089;-88
2023/01/01 02:43:01;;;;;;;11.55;3.58;;;15.10;99.90;;;;;;12586608;28;20097;-88
2023/01/01 02:49:03;;;;;;;8.90;3.72;;;15.10;99.90;;;;;;12582067;28;20089;-88
2023/01/01 02:55:35;;;;;;;11.38;3.35;;;15.10;99.90;;;;;;12569828;28;20041;-88
2023/01/01 03:02:13;;;;;;;10.48;3.60;;;15.10;99.90;;;;;;12566587;28;20457;-88
2023/01/01 03:08:21;;;;;;;9.07;2.67;;;15.10;99.90;;;;;;12538124;28;20110;-88
2023/01/01 03:14:39;;;;;;;7.97;2.70;;;15.10;99.90;;;;;;12555985;28;20044;-88
2023/01/01 03:20:45;;;;;;;13.23;2.78;;;15.00;99.90;;;;;;12563211;28;20090;-88
2023/01/01 03:26:50;;;;;;;6.53;2.20;;;15.00;99.90;;;;;;12571275;28;20049;-88
2023/01/01 03:33:00;;;;;;;6.15;2.10;;;15.00;99.90;;;;;;12581004;28;20036;-88
2023/01/01 03:39:09;;;;;;;17.35;2.58;;;15.00;99.90;;;;;;12594447;28;20064;-88
2023/01/01 03:45:23;;;;;;;6.65;1.77;;;14.90;99.90;;;;;;12591459;28;20071;-88
2023/01/01 03:51:40;;;;;;;3.92;1.23;;;14.80;99.90;;;;;;12604930;28;20071;-87
2023/01/01 03:57:56;;;;;;;6.55;1.80;;;14.90;99.90;;;;;;12571954;28;20049;-88
2023/01/01 04:04:00;;;;;;;4.85;1.40;;;14.80;99.90;;;;;;12589721;28;20113;-87
2023/01/01 04:10:15;;;;;;;6.20;1.60;;;14.90;99.90;;;;;;12591836;28;20610;-87
2023/01/01 04:16:18;;;;;;;5.82;1.83;;;14.80;99.90;;;;;;12584227;28;20093;-88
2023/01/01 04:22:22;;;;;;;5.82;1.60;;;14.80;99.90;;;;;;12568831;28;20045;-88
2023/01/01 04:28:24;;;;;;;4.68;1.35;;;14.80;99.90;;;;;;12570186;28;20053;-87
2023/01/01 04:34:26;;;;;;;6.55;1.52;;;14.70;99.90;;;;;;12570856;28;20549;-88
2023/01/01 04:40:28;;;;;;;7.20;1.65;;;14.70;99.90;;;;;;12589258;28;20044;-87
2023/01/01 04:46:30;;;;;;;7.30;1.90;;;14.60;99.90;;;;;;12564394;28;20051;-87
2023/01/01 04:52:32;;;;;;;7.15;1.50;;;14.60;99.90;;;;;;12574864;28;20047;-87
2023/01/01 04:58:35;;;;;;;5.88;1.42;;;14.60;99.90;;;;;;12602042;28;20064;-88
2023/01/01 05:04:37;;;;;;;4.78;1.25;;;14.70;99.90;;;;;;12588989;28;20493;-86
2023/01/01 05:10:39;;;;;;;5.60;1.15;;;14.60;99.90;;;;;;12564270;28;20135;-88
2023/01/01 05:16:40;;;;;;;4.03;0.90;;;14.60;99.90;;;;;;12589740;28;20060;-88
2023/01/01 05:22:45;;;;;;;4.20;1.10;;;14.60;99.90;;;;;;12585354;28;20041;-88
2023/01/01 05:28:47;;;;;;;;;;;14.60;99.90;;;;;;12584892;28;20044;-88
2023/01/01 05:34:50;;;;;;;5.20;1.95;;;14.60;99.90;;;;;;12586874;28;19921;-88
2023/01/01 05:40:52;;;;;;;6.60;1.33;;;14.60;99.90;;;;;;12568445;28;20547;-87
2023/01/01 05:46:54;;;;;;;3.10;1.10;;;14.50;99.90;;;;;;12593562;28;20040;-88
2023/01/01 05:52:55;;;;;;;3.35;1.52;;;14.60;99.90;;;;;;12579222;28;20041;-87
2023/01/01 05:58:57;;;;;;;7.53;1.27;;;14.60;99.90;;;;;;12567831;28;20064;-88
2023/01/01 06:04:59;;;;;;;5.60;1.15;;;14.50;99.90;;;;;;12598290;28;20119;-87
2023/01/01 06:11:03;;;;;;;6.07;0.98;;;14.50;99.90;;;;;;12573366;28;20044;-88
2023/01/01 06:17:05;;;;;;;7.05;1.25;;;14.40;99.90;;;;;;12566534;28;20127;-88
2023/01/01 06:23:07;;;;;;;3.35;1.08;;;14.30;99.90;;;;;;12579665;28;20048;-87
2023/01/01 06:29:09;;;;;;;6.07;1.13;;;14.30;99.90;;;;;;12567535;28;20044;-87
2023/01/01 06:35:10;;;;;;;12.63;1.45;;;14.20;99.90;;;;;;12536702;28;20049;-87
2023/01/01 06:41:15;;;;;;;2.08;0.73;;;14.10;99.90;;;;;;12533057;28;20401;-87
2023/01/01 06:47:17;;;;;;;3.38;0.90;;;14.00;99.90;;;;;;12548469;28;20075;-86
2023/01/01 06:53:25;;;;;;;5.03;1.08;;;14.10;99.90;;;;;;12525481;28;20041;-87
2023/01/01 06:59:27;;;;;;;5.97;0.95;;;14.20;99.90;;;;;;12534373;28;20185;-87
2023/01/01 07:05:29;;;;;;;7.75;1.13;;;14.20;99.90;;;;;;12523245;28;20041;-88
2023/01/01 07:11:31;;;;;;;7.05;1.33;;;14.10;99.90;;;;;;12528608;28;20049;-86
2023/01/01 07:17:33;;;;;;;3.15;0.80;;;14.10;99.90;;;;;;12529455;28;20068;-86
2023/01/01 07:23:35;;;;;;;3.53;0.90;;;14.10;99.90;;;;;;12517842;28;20037;-87
2023/01/01 07:29:37;;;;;;;4.32;1.38;;;14.10;99.90;;;;;;12535071;28;20685;-87
2023/01/01 07:35:39;;;;;;;4.10;1.05;;;14.20;99.90;;;;;;12569000;28;20044;-87
2023/01/01 07:41:41;;;;;;;9.13;1.33;;;14.20;99.90;;;;;;12558901;28;20052;-87
2023/01/01 07:47:53;;;;;;;4.05;1.17;;;14.20;99.90;;;;;;12562876;28;20048;-87
2023/01/01 07:53:55;;;;;;;4.20;1.05;;;14.10;99.90;;;;;;12588322;28;20037;-87
2023/01/01 08:00:05;;;;;;;6.13;1.50;;;14.10;99.90;;;;;;12585573;28;20136;-87
2023/01/01 08:06:09;;;;;;;6.93;1.35;;;14.00;99.90;;;;;;12564799;28;20055;-87
2023/01/01 08:12:10;;;;;;;7.60;1.30;;;14.00;99.90;;;;;;12580946;28;20101;-86
2023/01/01 08:18:12;;;;;;;3.45;1.10;;;13.80;99.90;;;;;;12567069;28;20347;-86
2023/01/01 08:24:14;;;;;;;3.22;1.02;;;13.70;99.90;;;;;;12586887;28;20045;-87
2023/01/01 08:30:16;;;;;;;4.72;1.10;;;13.50;99.90;;;;;;12566571;28;20041;-85
2023/01/01 08:36:19;;;;;;;4.03;0.98;;;13.40;99.90;;;;;;12550414;28;20052;-86
2023/01/01 08:42:21;;;;;;;6.43;1.45;;;13.20;99.90;;;;;;12581059;28;20102;-86
2023/01/01 08:48:24;;;;;;;4.97;1.20;;;12.80;99.90;;;;;;12591286;28;20037;-86
2023/01/01 08:54:31;;;;;;;5.22;1.35;;;12.50;99.90;;;;;;12571184;28;20086;-86
2023/01/01 09:00:33;;;;;;;5.28;1.40;;;12.70;99.90;;;;;;12588235;28;20036;-87
2023/01/01 09:06:35;;;;;;;7.20;1.27;;;12.40;99.90;;;;;;12586801;28;20041;-86
2023/01/01 09:12:37;;;;;;;3.72;1.35;;;12.10;99.90;;;;;;12584442;28;20048;-86
2023/01/01 09:18:38;;;;;;;4.03;1.52;;;12.10;99.90;;;;;;12570684;28;20052;-86
2023/01/01 09:24:40;;;;;;;4.65;1.45;;;11.90;99.90;;;;;;12587984;28;20389;-86
2023/01/01 09:30:42;;;;;;;5.22;1.45;;;11.90;99.90;;;;;;12567530;28;20744;-87
2023/01/01 09:36:44;;;;;;;5.28;2.00;;;12.00;99.90;;;;;;12565489;28;20105;-86
2023/01/01 09:42:58;;;;;;;7.15;1.83;;;12.00;99.90;;;;;;12590157;28;20051;-86
2023/01/01 09:49:04;;;;;;;7.10;1.92;;;11.90;99.90;;;;;;12567973;28;20082;-87
2023/01/01 09:55:19;;;;;;;7.07;1.80;;;11.90;99.90;;;;;;12585405;28;20120;-87
2023/01/01 10:01:38;;;;;;;4.13;1.40;;;11.70;99.90;;;;;;12566989;28;20061;-87
2023/01/01 10:08:00;;;;;;;4.88;1.30;;;11.50;99.90;;;;;;12586072;28;20669;-87
2023/01/01 10:14:24;;;;;;;6.82;1.50;;;11.30;99.90;;;;;;12580658;28;20515;-86
2023/01/01 10:20:28;;;;;;;3.00;1.17;;;11.10;99.90;;;;;;12582573;28;20052;-87
2023/01/01 10:26:33;;;;;;;6.50;1.13;;;10.90;99.90;;;;;;12568664;28;20048;-86
2023/01/01 10:32:37;;;;;;;6.53;1.27;;;10.80;99.90;;;;;;12562981;28;20468;-86
2023/01/01 10:38:40;;;;;;;5.00;1.20;;;10.60;99.90;;;;;;12576192;28;20044;-86
2023/01/01 10:44:43;;;;;;;3.88;1.33;;;10.50;99.90;;;;;;12584210;28;20056;-86
2023/01/01 10:50:51;;;;;;;6.50;1.30;;;10.50;99.90;;;;;;12585531;28;20049;-86
2023/01/01 10:56:53;;;;;;;6.00;1.40;;;10.40;99.90;;;;;;12569009;28;20048;-86
2023/01/01 11:03:11;;;;;;;6.88;1.70;;;10.50;99.90;;;;;;12576603;28;20089;-86
2023/01/01 11:09:25;;;;;;;4.15;1.67;;;10.50;99.90;;;;;;12560699;28;20044;-87
2023/01/01 11:15:40;;;;;;;9.25;1.88;;;10.50;99.90;;;;;;12562944;28;20048;-86
2023/01/01 11:21:46;;;;;;;6.15;1.77;;;10.50;99.90;;;;;;12577100;28;20073;-86
2023/01/01 11:27:49;;;;;;;8.02;2.22;;;10.60;99.90;;;;;;12583109;28;20048;-86
2023/01/01 11:33:53;;;;;;;5.72;2.00;;;10.50;99.90;;;;;;12580942;28;20147;-85
2023/01/01 11:39:57;;;;;;;6.18;2.35;;;10.50;99.90;;;;;;12565062;28;20052;-86
2023/01/01 11:45:59;;;;;;;10.50;3.03;;;10.60;99.90;;;;;;12584658;28;20040;-86
2023/01/01 11:52:37;;;;;;;6.07;2.42;;;10.70;99.90;;;;;;12581282;28;20433;-86
2023/01/01 11:58:54;;;;;;;7.40;2.65;;;10.60;99.90;;;;;;12583379;28;20488;-86
2023/01/01 12:05:08;;;;;;;9.38;2.42;;;10.60;99.90;;;;;;12595712;28;20047;-85
2023/01/01 12:11:33;;;;;;;8.40;2.50;;;10.70;99.90;;;;;;12590477;28;20493;-85
2023/01/01 12:18:02;;;;;;;6.50;2.85;;;10.70;99.90;;;;;;12592712;28;20139;-85
2023/01/01 12:24:10;;;;;;;8.32;3.10;;;10.80;99.90;;;;;;12572456;28;20487;-85
2023/01/01 12:30:34;;;;;;;7.25;2.70;;;10.90;99.90;;;;;;12578372;28;20048;-85
2023/01/01 12:37:02;;;;;;;10.18;3.58;;;11.10;99.90;;;;;;12595341;28;20045;-85
2023/01/01 12:43:32;;;;;;;10.85;3.83;;;11.00;99.90;;;;;;12533547;28;20040;-85
2023/01/01 12:49:46;;;;;;;10.82;2.95;;;11.00;99.90;;;;;;12575953;28;20047;-86
2023/01/01 12:56:03;;;;;;;7.60;2.78;;;11.20;99.90;;;;;;12597806;28;20189;-86
2023/01/01 13:02:27;;;;;;;6.75;2.53;;;11.40;99.90;;;;;;12590627;28;20060;-86
2023/01/01 13:08:32;;;;;;;4.95;2.00;;;11.80;99.90;;;;;;12583078;28;20048;-86
2023/01/01 13:14:41;;;;;;;9.63;2.27;;;11.80;99.90;;;;;;12591213;28;20032;-87
2023/01/01 13:20:55;;;;;;;4.55;1.88;;;11.70;99.90;;;;;;12591508;28;20308;-87
2023/01/01 13:26:57;;;;;;;6.70;2.40;;;11.70;99.90;;;;;;12575907;28;20056;-86
2023/01/01 13:33:30;;;;;;;10.52;2.40;;;11.70;99.90;;;;;;12584820;28;20052;-86
2023/01/01 13:40:01;;;;;;;7.10;1.98;;;11.70;99.90;;;;;;12590743;28;20055;-87
2023/01/01 13:46:04;;;;;;;7.80;2.17;;;11.70;99.90;;;;;;12601252;28;20048;-86
2023/01/01 13:53:22;;;;;;;4.53;2.00;;;11.60;99.90;;;;;;12583335;28;20044;-86
2023/01/01 14:00:01;;;;;;;8.23;2.50;;;11.70;99.90;;;;;;12493053;28;20053;-86
2023/01/01 14:06:13;;;;;;;9.70;2.17;;;11.70;99.90;;;;;;12571436;28;20041;-86
2023/01/01 14:12:20;;;;;;;8.00;2.28;;;11.70;99.90;;;;;;12577242;28;20783;-86
2023/01/01 14:18:40;;;;;;;8.30;1.95;;;11.70;99.90;;;;;;12568969;28;20063;-86
2023/01/01 14:24:44;;;;;;;8.90;2.13;;;11.80;99.90;;;;;;12584768;28;20036;-86
2023/01/01 14:30:46;;;;;;;;;;;11.80;99.90;;;;;;12593182;28;20045;-87
2023/01/01 14:36:51;;;;;;;10.02;1.70;;;11.90;99.90;;;;;;12579953;28;19924;-87
2023/01/01 14:43:00;;;;;;;;;;;11.90;99.90;;;;;;12579651;28;20059;-87
2023/01/01 14:49:08;;;;;;;9.13;1.70;;;12.10;99.90;;;;;;12587728;28;20459;-86
2023/01/01 14:55:16;;;;;;;7.90;1.80;;;12.10;99.90;;;;;;12585938;28;20037;-87
2023/01/01 15:01:25;;;;;;;8.52;1.65;;;12.10;99.90;;;;;;12563479;28;20040;-86
2023/01/01 15:07:29;;;;;;;6.25;1.45;;;12.00;99.90;;;;;;12592751;28;20044;-86
2023/01/01 15:13:31;;;;;;;7.88;1.65;;;12.00;99.90;;;;;;12577454;28;20048;-86
2023/01/01 15:19:35;;;;;;;7.63;1.70;;;12.10;99.90;;;;;;12570475;28;20049;-86
2023/01/01 15:25:40;;;;;;;;;;;12.10;99.90;;;;;;12584101;28;20063;-88
2023/01/01 15:31:47;;;;;;;8.40;1.83;;;12.10;99.90;;;;;;12591585;28;19928;-86
2023/01/01 15:37:53;;;;;;;16.23;2.35;;;12.00;99.90;;;;;;12578870;28;20052;-86
2023/01/01 15:44:30;;;;;;;5.25;1.92;;;12.00;99.90;;;;;;12595278;28;20078;-85
2023/01/01 15:50:35;;;;;;;9.85;1.55;;;12.00;99.90;;;;;;12547301;28;20070;-85
2023/01/01 15:56:39;;;;;;;7.45;1.67;;;11.90;99.90;;;;;;12584560;28;20064;-85
2023/01/01 16:02:41;;;;;;;7.53;2.13;;;11.90;99.90;;;;;;12576360;28;20079;-85
2023/01/01 16:08:43;;;;;;;7.20;1.80;;;11.90;99.90;;;;;;12597979;28;20059;-86
2023/01/01 16:14:45;;;;;;;7.97;2.20;;;11.90;99.90;;;;;;12580173;28;20044;-85
2023/01/01 16:20:50;;;;;;;6.60;1.70;;;11.90;99.90;;;;;;12597793;28;20159;-85
2023/01/01 16:26:52;;;;;;;10.13;2.15;;;11.80;99.90;;;;;;12588826;28;20484;-85
2023/01/01 16:32:54;;;;;;;7.68;2.55;;;11.70;99.90;;;;;;12587706;28;20056;-84
2023/01/01 16:38:56;;;;;;;10.13;2.10;;;11.70;99.90;;;;;;12585410;28;20049;-84
2023/01/01 16:44:58;;;;;;;9.80;2.28;;;11.70;99.90;;;;;;12575656;28;20489;-84
2023/01/01 16:51:00;;;;;;;8.75;2.05;;;11.70;99.90;;;;;;12598887;28;20055;-85
2023/01/01 16:57:01;;;;;;;5.90;1.60;;;11.80;99.90;;;;;;12576509;28;20060;-84
2023/01/01 17:03:04;;;;;;;7.63;1.50;;;11.80;99.90;;;;;;12586959;28;20530;-85
2023/01/01 17:09:06;;;;;;;6.68;1.90;;;11.80;99.90;;;;;;12577894;28;20131;-86
2023/01/01 17:15:09;;;;;;;8.07;1.58;;;11.90;99.90;;;;;;12600549;28;20120;-86
2023/01/01 17:21:11;;;;;;;17.88;7.38;;;11.90;99.90;;;;;;12595702;28;20127;-85
2023/01/01 17:27:13;;;;;;;10.80;1.88;;;11.90;99.90;;;;;;12576791;28;20059;-85
2023/01/01 17:33:15;;;;;;;5.00;1.70;;;11.90;99.90;;;;;;12647660;28;20052;-85
2023/01/01 17:39:16;;;;;;;8.65;1.60;;;11.80;99.90;;;;;;12633649;28;20052;-85
2023/01/01 17:45:18;;;;;;;8.18;1.60;;;11.80;99.90;;;;;;12637065;28;20083;-85
2023/01/01 17:51:21;;;;;;;3.85;1.60;;;11.80;99.90;;;;;;12626816;28;20068;-85
2023/01/01 17:57:24;;;;;;;7.40;1.60;;;11.80;99.90;;;;;;12642675;28;20044;-86
2023/01/01 18:03:25;;;;;;;10.27;2.15;;;11.70;99.90;;;;;;12589094;28;20056;-86
2023/01/01 18:09:27;;;;;;;7.45;1.92;;;11.70;99.90;;;;;;12599490;28;20044;-85
2023/01/01 18:15:29;;;;;;;4.72;1.55;;;11.70;99.90;;;;;;12585922;28;20044;-85
2023/01/01 18:21:34;;;;;;;8.25;1.88;;;11.70;99.90;;;;;;12571051;28;20150;-84
2023/01/01 18:27:36;;;;;;;9.50;1.65;;;11.60;99.90;;;;;;12589900;28;20040;-84
2023/01/01 18:33:38;;;;;;;7.60;2.22;;;11.60;99.90;;;;;;12594540;28;20099;-85
2023/01/01 18:39:42;;;;;;;5.63;1.80;;;11.50;99.90;;;;;;12591006;28;20036;-85
2023/01/01 18:45:44;;;;;;;6.67;1.93;;;11.50;99.90;;;;;;12589396;28;20060;-85
2023/01/01 18:51:50;;;;;;;5.80;1.48;;;11.50;99.90;;;;;;12592711;28;20097;-85
2023/01/01 18:57:58;;;;;;;6.65;1.73;;;11.40;99.90;;;;;;12572951;28;20056;-86
2023/01/01 19:04:03;;;;;;;5.75;1.50;;;11.40;99.90;;;;;;12586846;28;20052;-85
2023/01/01 19:10:12;;;;;;;8.05;2.03;;;11.50;99.90;;;;;;12588606;28;20047;-85
2023/01/01 19:16:31;;;;;;;7.80;1.92;;;11.50;99.90;;;;;;12562851;28;20057;-85
2023/01/01 19:22:33;;;;;;;5.50;1.50;;;11.50;99.90;;;;;;12589651;28;20041;-85
2023/01/01 19:28:36;;;;;;;6.88;1.73;;;11.40;99.90;;;;;;12563205;28;20041;-84
2023/01/01 19:34:38;;;;;;;5.93;1.98;;;11.40;99.90;;;;;;12573800;28;20045;-84
2023/01/01 19:40:40;;;;;;;6.07;1.88;;;11.30;99.90;;;;;;12587319;28;20041;-85
2023/01/01 19:46:42;;;;;;;6.10;2.38;;;11.20;99.90;;;;;;12589277;28;20074;-84
2023/01/01 19:52:44;;;;;;;7.35;3.38;;;11.20;99.90;;;;;;12592070;28;20045;-85
2023/01/01 19:58:46;;;;;;;8.38;2.30;;;11.10;99.90;;;;;;12569503;28;20059;-85
2023/01/01 20:04:48;;;;;;;6.55;2.20;;;11.00;99.90;;;;;;12569269;28;20044;-84
2023/01/01 20:10:50;;;;;;;5.25;2.30;;;11.00;99.90;;;;;;12581840;28;20174;-85
2023/01/01 20:16:52;;;;;;;6.18;2.20;;;10.90;99.90;;;;;;12563491;28;20067;-86
2023/01/01 20:22:54;;;;;;;5.75;2.28;;;10.70;99.90;;;;;;12573424;28;20089;-86
2023/01/01 20:37:35;;;;;;;6.97;2.47;;;10.60;99.90;;;;;;12593476;28;20511;-85
2023/01/01 20:41:38;;;;;;;9.88;2.63;;;10.60;99.90;;;;;;12591433;28;20078;-86
2023/01/01 20:47:40;;;;;;;5.20;2.10;;;10.60;99.90;;;;;;12595556;28;20135;-85
2023/01/01 20:53:42;;;;;;;7.10;2.72;;;10.50;99.90;;;;;;12576172;28;20051;-85
2023/01/01 20:59:44;;;;;;;9.32;2.53;;;10.50;99.90;;;;;;12591834;28;20056;-85
2023/01/01 21:05:46;;;;;;;9.07;2.80;;;10.60;99.90;;;;;;12587920;28;20033;-86
2023/01/01 21:11:48;;;;;;;4.22;2.33;;;10.60;99.90;;;;;;12594871;28;20109;-85
2023/01/01 21:17:50;;;;;;;7.60;2.00;;;10.60;99.90;;;;;;12570772;28;20111;-85
2023/01/01 21:23:56;;;;;;;6.60;2.17;;;10.70;99.90;;;;;;12575907;28;20041;-85
2023/01/01 21:29:58;;;;;;;9.38;2.53;;;10.80;99.90;;;;;;12567380;28;20044;-85
2023/01/01 21:36:12;;;;;;;12.70;2.17;;;10.80;99.90;;;;;;12574836;28;20186;-85
2023/01/01 21:42:23;;;;;;;9.17;2.27;;;10.90;99.90;;;;;;12583489;28;20300;-86
2023/01/01 21:48:40;;;;;;;7.55;2.40;;;11.00;99.90;;;;;;12571579;28;20348;-86
2023/01/01 21:54:43;;;;;;;10.32;2.70;;;11.10;99.90;;;;;;12590959;28;20045;-85
2023/01/01 22:00:45;;;;;;;9.43;2.80;;;11.10;99.90;;;;;;12570684;28;20532;-85
2023/01/01 22:07:19;;;;;;;8.27;2.78;;;11.10;99.90;;;;;;12567969;28;20052;-85
2023/01/01 22:13:41;;;;;;;7.68;2.63;;;11.00;99.90;;;;;;12585106;28;20049;-85
2023/01/01 22:19:44;;;;;;;7.70;2.90;;;11.10;99.90;;;;;;12566929;28;20044;-85
2023/01/01 22:25:47;;;;;;;10.27;2.67;;;11.10;99.90;;;;;;12561079;28;20068;-85
2023/01/01 22:31:58;;;;;;;5.60;2.45;;;11.20;99.90;;;;;;12589734;28;20059;-85
2023/01/01 22:38:05;;;;;;;8.65;2.75;;;11.10;99.90;;;;;;12584960;28;20389;-85
2023/01/01 22:44:09;;;;;;;7.95;2.80;;;11.10;99.90;;;;;;12561372;28;20052;-85
2023/01/01 22:50:20;;;;;;;8.90;2.95;;;11.10;99.90;;;;;;12579585;28;20055;-85
2023/01/01 22:56:21;;;;;;;10.55;3.20;;;11.10;99.90;;;;;;12582741;28;20048;-85
2023/01/01 23:02:23;;;;;;;6.13;2.70;;;11.10;99.90;;;;;;12584162;28;20052;-85
2023/01/01 23:08:25;;;;;;;12.23;3.35;;;11.10;99.90;;;;;;12565848;28;20048;-85
2023/01/01 23:20:47;;;;;;;12.80;3.58;;;11.10;99.90;;;;;;12579994;28;20054;-86
2023/01/01 23:26:50;;;;;;;14.10;3.63;;;11.20;99.90;;;;;;12587082;28;20213;-86
2023/01/01 23:32:52;;;;;;;10.50;3.53;;;11.20;99.90;;;;;;12562243;28;20052;-87
2023/01/01 23:38:54;;;;;;;7.05;2.90;;;11.20;99.90;;;;;;12563789;28;20055;-86
2023/01/01 23:44:56;;;;;;;12.95;4.30;;;11.20;99.90;;;;;;12579587;28;20052;-85
2023/01/01 23:50:58;;;;;;;9.70;3.08;;;11.20;99.90;;;;;;12596615;28;20051;-85
2023/01/01 23:57:00;;;;;;;8.85;2.90;;;11.30;99.90;;;;;;12573419;28;20073;-85
